sensor_id;sensor_type;location;lat;lon;timestamp;P1;durP1;ratioP1;P2;durP2;ratioP2
22097;SDS011;11215;51.938;8.464;2023-05-27T00:01:59;10.93;;;3.80;;
22097;SDS011;11215;51.938;8.464;2023-05-27T00:04:25;13.30;;;4.27;;
22097;SDS011;11215;51.938;8.464;2023-05-27T00:06:50;9.10;;;3.83;;
22097;SDS011;11215;51.938;8.464;2023-05-27T00:09:16;10.20;;;4.13;;
22097;SDS011;11215;51.938;8.464;2023-05-27T00:14:27;13.03;;;4.30;;
22097;SDS011;11215;51.938;8.464;2023-05-27T00:16:52;12.17;;;3.80;;
22097;SDS011;11215;51.938;8.464;2023-05-27T00:19:18;11.80;;;4.20;;
22097;SDS011;11215;51.938;8.464;2023-05-27T00:21:43;11.17;;;4.50;;
22097;SDS011;11215;51.938;8.464;2023-05-27T00:24:22;10.70;;;3.90;;
22097;SDS011;11215;51.938;8.464;2023-05-27T00:26:48;8.20;;;3.70;;
22097;SDS011;11215;51.938;8.464;2023-05-27T00:29:15;9.30;;;4.17;;
22097;SDS011;11215;51.938;8.464;2023-05-27T00:31:41;8.00;;;3.60;;
22097;SDS011;11215;51.938;8.464;2023-05-27T00:34:07;11.17;;;4.90;;
22097;SDS011;11215;51.938;8.464;2023-05-27T00:36:33;13.00;;;5.13;;
22097;SDS011;11215;51.938;8.464;2023-05-27T00:38:59;8.13;;;4.00;;
22097;SDS011;11215;51.938;8.464;2023-05-27T00:41:25;13.80;;;3.90;;
22097;SDS011;11215;51.938;8.464;2023-05-27T00:43:57;9.93;;;4.00;;
22097;SDS011;11215;51.938;8.464;2023-05-27T00:46:23;9.77;;;4.20;;
22097;SDS011;11215;51.938;8.464;2023-05-27T00:48:49;9.97;;;3.67;;
22097;SDS011;11215;51.938;8.464;2023-05-27T00:51:14;13.20;;;4.00;;
22097;SDS011;11215;51.938;8.464;2023-05-27T00:53:41;11.93;;;4.27;;
22097;SDS011;11215;51.938;8.464;2023-05-27T00:56:08;10.67;;;4.13;;
22097;SDS011;11215;51.938;8.464;2023-05-27T01:01:11;9.43;;;3.90;;
22097;SDS011;11215;51.938;8.464;2023-05-27T01:03:37;11.10;;;4.10;;
22097;SDS011;11215;51.938;8.464;2023-05-27T01:08:54;10.77;;;3.73;;
22097;SDS011;11215;51.938;8.464;2023-05-27T01:11:38;12.13;;;4.70;;
22097;SDS011;11215;51.938;8.464;2023-05-27T01:14:09;11.30;;;4.23;;
22097;SDS011;11215;51.938;8.464;2023-05-27T01:16:37;10.00;;;3.43;;
22097;SDS011;11215;51.938;8.464;2023-05-27T01:19:07;10.13;;;3.90;;
22097;SDS011;11215;51.938;8.464;2023-05-27T01:21:36;7.70;;;3.60;;
22097;SDS011;11215;51.938;8.464;2023-05-27T01:24:10;10.67;;;4.00;;
22097;SDS011;11215;51.938;8.464;2023-05-27T01:26:36;7.60;;;3.80;;
22097;SDS011;11215;51.938;8.464;2023-05-27T01:29:02;10.00;;;3.87;;
22097;SDS011;11215;51.938;8.464;2023-05-27T01:31:36;15.67;;;4.00;;
22097;SDS011;11215;51.938;8.464;2023-05-27T01:34:08;12.93;;;4.50;;
22097;SDS011;11215;51.938;8.464;2023-05-27T01:36:40;7.43;;;3.27;;
22097;SDS011;11215;51.938;8.464;2023-05-27T01:39:34;8.47;;;3.47;;
22097;SDS011;11215;51.938;8.464;2023-05-27T01:42:02;12.30;;;4.57;;
22097;SDS011;11215;51.938;8.464;2023-05-27T01:44:29;11.57;;;3.47;;
22097;SDS011;11215;51.938;8.464;2023-05-27T01:47:02;8.47;;;4.13;;
22097;SDS011;11215;51.938;8.464;2023-05-27T01:49:28;10.77;;;3.80;;
22097;SDS011;11215;51.938;8.464;2023-05-27T01:51:54;9.50;;;4.17;;
22097;SDS011;11215;51.938;8.464;2023-05-27T01:54:19;9.80;;;3.77;;
22097;SDS011;11215;51.938;8.464;2023-05-27T01:56:45;9.13;;;3.83;;
22097;SDS011;11215;51.938;8.464;2023-05-27T01:59:22;8.03;;;3.80;;
22097;SDS011;11215;51.938;8.464;2023-05-27T02:01:48;9.37;;;3.73;;
22097;SDS011;11215;51.938;8.464;2023-05-27T02:04:13;13.03;;;3.97;;
22097;SDS011;11215;51.938;8.464;2023-05-27T02:06:39;14.20;;;3.90;;
22097;SDS011;11215;51.938;8.464;2023-05-27T02:09:14;7.50;;;3.93;;
22097;SDS011;11215;51.938;8.464;2023-05-27T02:11:40;8.80;;;3.57;;
22097;SDS011;11215;51.938;8.464;2023-05-27T02:14:15;8.23;;;3.80;;
22097;SDS011;11215;51.938;8.464;2023-05-27T02:16:41;8.20;;;3.50;;
22097;SDS011;11215;51.938;8.464;2023-05-27T02:19:07;7.57;;;3.57;;
22097;SDS011;11215;51.938;8.464;2023-05-27T02:21:35;8.63;;;3.30;;
22097;SDS011;11215;51.938;8.464;2023-05-27T02:24:01;5.60;;;3.43;;
22097;SDS011;11215;51.938;8.464;2023-05-27T02:26:27;10.77;;;3.67;;
22097;SDS011;11215;51.938;8.464;2023-05-27T02:31:22;8.87;;;3.50;;
22097;SDS011;11215;51.938;8.464;2023-05-27T02:33:55;6.90;;;3.43;;
22097;SDS011;11215;51.938;8.464;2023-05-27T02:36:21;9.67;;;3.47;;
22097;SDS011;11215;51.938;8.464;2023-05-27T02:38:50;8.43;;;3.60;;
22097;SDS011;11215;51.938;8.464;2023-05-27T02:41:16;8.70;;;3.40;;
22097;SDS011;11215;51.938;8.464;2023-05-27T02:43:42;12.03;;;4.57;;
22097;SDS011;11215;51.938;8.464;2023-05-27T02:46:13;10.03;;;4.00;;
22097;SDS011;11215;51.938;8.464;2023-05-27T02:48:38;9.90;;;3.60;;
22097;SDS011;11215;51.938;8.464;2023-05-27T02:51:04;7.23;;;3.30;;
22097;SDS011;11215;51.938;8.464;2023-05-27T02:53:30;9.13;;;3.53;;
22097;SDS011;11215;51.938;8.464;2023-05-27T02:56:05;8.40;;;3.37;;
22097;SDS011;11215;51.938;8.464;2023-05-27T02:58:31;8.30;;;3.20;;
22097;SDS011;11215;51.938;8.464;2023-05-27T03:00:56;9.53;;;3.60;;
22097;SDS011;11215;51.938;8.464;2023-05-27T03:03:24;7.87;;;3.37;;
22097;SDS011;11215;51.938;8.464;2023-05-27T03:05:50;8.00;;;3.57;;
22097;SDS011;11215;51.938;8.464;2023-05-27T03:08:15;7.77;;;3.83;;
22097;SDS011;11215;51.938;8.464;2023-05-27T03:10:41;13.57;;;3.60;;
22097;SDS011;11215;51.938;8.464;2023-05-27T03:13:07;8.50;;;3.17;;
22097;SDS011;11215;51.938;8.464;2023-05-27T03:15:32;8.30;;;3.87;;
22097;SDS011;11215;51.938;8.464;2023-05-27T03:17:59;8.03;;;3.23;;
22097;SDS011;11215;51.938;8.464;2023-05-27T03:20:25;6.30;;;3.17;;
22097;SDS011;11215;51.938;8.464;2023-05-27T03:22:50;9.23;;;4.03;;
22097;SDS011;11215;51.938;8.464;2023-05-27T03:25:16;7.80;;;3.70;;
22097;SDS011;11215;51.938;8.464;2023-05-27T03:27:44;8.33;;;3.40;;
22097;SDS011;11215;51.938;8.464;2023-05-27T03:30:09;7.80;;;3.53;;
22097;SDS011;11215;51.938;8.464;2023-05-27T03:32:40;9.33;;;3.13;;
22097;SDS011;11215;51.938;8.464;2023-05-27T03:35:06;6.47;;;3.93;;
22097;SDS011;11215;51.938;8.464;2023-05-27T03:37:32;5.37;;;3.20;;
22097;SDS011;11215;51.938;8.464;2023-05-27T03:39:58;9.23;;;3.23;;
22097;SDS011;11215;51.938;8.464;2023-05-27T03:42:23;8.53;;;3.60;;
22097;SDS011;11215;51.938;8.464;2023-05-27T03:44:49;9.37;;;3.67;;
22097;SDS011;11215;51.938;8.464;2023-05-27T03:47:15;8.03;;;3.17;;
22097;SDS011;11215;51.938;8.464;2023-05-27T03:49:46;9.97;;;4.13;;
22097;SDS011;11215;51.938;8.464;2023-05-27T03:52:13;11.20;;;3.83;;
22097;SDS011;11215;51.938;8.464;2023-05-27T03:54:39;7.77;;;3.27;;
22097;SDS011;11215;51.938;8.464;2023-05-27T03:57:05;9.63;;;3.80;;
22097;SDS011;11215;51.938;8.464;2023-05-27T03:59:47;7.97;;;3.50;;
22097;SDS011;11215;51.938;8.464;2023-05-27T04:02:12;7.60;;;3.97;;
22097;SDS011;11215;51.938;8.464;2023-05-27T04:04:38;8.20;;;3.60;;
22097;SDS011;11215;51.938;8.464;2023-05-27T04:07:04;8.80;;;3.93;;
22097;SDS011;11215;51.938;8.464;2023-05-27T04:09:29;8.17;;;3.20;;
22097;SDS011;11215;51.938;8.464;2023-05-27T04:11:55;7.27;;;3.90;;
22097;SDS011;11215;51.938;8.464;2023-05-27T04:14:21;5.20;;;3.27;;
22097;SDS011;11215;51.938;8.464;2023-05-27T04:16:47;7.53;;;3.67;;
22097;SDS011;11215;51.938;8.464;2023-05-27T04:19:13;7.90;;;3.27;;
22097;SDS011;11215;51.938;8.464;2023-05-27T04:21:39;7.10;;;2.77;;
22097;SDS011;11215;51.938;8.464;2023-05-27T04:24:05;6.80;;;3.50;;
22097;SDS011;11215;51.938;8.464;2023-05-27T04:26:30;7.93;;;3.63;;
22097;SDS011;11215;51.938;8.464;2023-05-27T04:28:58;9.87;;;3.43;;
22097;SDS011;11215;51.938;8.464;2023-05-27T04:31:24;12.83;;;3.97;;
22097;SDS011;11215;51.938;8.464;2023-05-27T04:33:53;7.73;;;3.07;;
22097;SDS011;11215;51.938;8.464;2023-05-27T04:36:19;6.87;;;3.37;;
22097;SDS011;11215;51.938;8.464;2023-05-27T04:38:50;6.43;;;3.33;;
22097;SDS011;11215;51.938;8.464;2023-05-27T04:41:16;7.80;;;3.73;;
22097;SDS011;11215;51.938;8.464;2023-05-27T04:43:41;8.47;;;3.73;;
22097;SDS011;11215;51.938;8.464;2023-05-27T04:46:07;8.60;;;4.00;;
22097;SDS011;11215;51.938;8.464;2023-05-27T04:48:33;10.70;;;4.00;;
22097;SDS011;11215;51.938;8.464;2023-05-27T04:51:00;9.40;;;3.70;;
22097;SDS011;11215;51.938;8.464;2023-05-27T04:53:26;8.97;;;3.80;;
22097;SDS011;11215;51.938;8.464;2023-05-27T04:55:51;8.50;;;3.80;;
22097;SDS011;11215;51.938;8.464;2023-05-27T04:58:17;6.40;;;3.37;;
22097;SDS011;11215;51.938;8.464;2023-05-27T05:00:43;7.90;;;3.40;;
22097;SDS011;11215;51.938;8.464;2023-05-27T05:03:24;7.63;;;3.53;;
22097;SDS011;11215;51.938;8.464;2023-05-27T05:06:01;7.70;;;3.90;;
22097;SDS011;11215;51.938;8.464;2023-05-27T05:08:28;8.57;;;3.67;;
22097;SDS011;11215;51.938;8.464;2023-05-27T05:10:54;9.57;;;4.07;;
22097;SDS011;11215;51.938;8.464;2023-05-27T05:13:20;7.87;;;3.60;;
22097;SDS011;11215;51.938;8.464;2023-05-27T05:15:46;9.67;;;4.00;;
22097;SDS011;11215;51.938;8.464;2023-05-27T05:18:12;9.60;;;3.43;;
22097;SDS011;11215;51.938;8.464;2023-05-27T05:20:38;7.17;;;4.10;;
22097;SDS011;11215;51.938;8.464;2023-05-27T05:23:04;8.60;;;3.33;;
22097;SDS011;11215;51.938;8.464;2023-05-27T05:25:32;12.70;;;3.60;;
22097;SDS011;11215;51.938;8.464;2023-05-27T05:28:02;11.17;;;3.70;;
22097;SDS011;11215;51.938;8.464;2023-05-27T05:30:31;10.67;;;4.03;;
22097;SDS011;11215;51.938;8.464;2023-05-27T05:32:57;9.00;;;3.70;;
22097;SDS011;11215;51.938;8.464;2023-05-27T05:35:23;10.43;;;4.00;;
22097;SDS011;11215;51.938;8.464;2023-05-27T05:37:48;10.20;;;3.97;;
22097;SDS011;11215;51.938;8.464;2023-05-27T05:40:14;10.03;;;3.90;;
22097;SDS011;11215;51.938;8.464;2023-05-27T05:42:40;9.73;;;4.43;;
22097;SDS011;11215;51.938;8.464;2023-05-27T05:45:05;13.60;;;4.23;;
22097;SDS011;11215;51.938;8.464;2023-05-27T05:47:32;11.83;;;4.00;;
22097;SDS011;11215;51.938;8.464;2023-05-27T05:49:58;9.80;;;3.87;;
22097;SDS011;11215;51.938;8.464;2023-05-27T05:52:23;9.73;;;3.87;;
22097;SDS011;11215;51.938;8.464;2023-05-27T05:54:49;12.97;;;4.20;;
22097;SDS011;11215;51.938;8.464;2023-05-27T05:57:15;9.07;;;4.07;;
22097;SDS011;11215;51.938;8.464;2023-05-27T05:59:41;12.93;;;4.20;;
22097;SDS011;11215;51.938;8.464;2023-05-27T06:02:06;9.30;;;3.67;;
22097;SDS011;11215;51.938;8.464;2023-05-27T06:04:32;13.97;;;3.93;;
22097;SDS011;11215;51.938;8.464;2023-05-27T06:06:58;11.77;;;4.10;;
22097;SDS011;11215;51.938;8.464;2023-05-27T06:09:24;10.67;;;4.20;;
22097;SDS011;11215;51.938;8.464;2023-05-27T06:11:50;10.37;;;4.00;;
22097;SDS011;11215;51.938;8.464;2023-05-27T06:14:16;12.07;;;4.03;;
22097;SDS011;11215;51.938;8.464;2023-05-27T06:16:42;7.77;;;3.67;;
22097;SDS011;11215;51.938;8.464;2023-05-27T06:19:08;11.03;;;4.17;;
22097;SDS011;11215;51.938;8.464;2023-05-27T06:21:34;9.13;;;3.80;;
22097;SDS011;11215;51.938;8.464;2023-05-27T06:24:00;9.07;;;3.53;;
22097;SDS011;11215;51.938;8.464;2023-05-27T06:26:26;11.50;;;4.20;;
22097;SDS011;11215;51.938;8.464;2023-05-27T06:28:52;10.90;;;3.80;;
22097;SDS011;11215;51.938;8.464;2023-05-27T06:31:18;7.93;;;3.60;;
22097;SDS011;11215;51.938;8.464;2023-05-27T06:33:44;8.57;;;3.77;;
22097;SDS011;11215;51.938;8.464;2023-05-27T06:36:09;11.27;;;3.67;;
22097;SDS011;11215;51.938;8.464;2023-05-27T06:38:36;8.13;;;3.90;;
22097;SDS011;11215;51.938;8.464;2023-05-27T06:41:01;11.83;;;4.60;;
22097;SDS011;11215;51.938;8.464;2023-05-27T06:43:27;11.63;;;4.87;;
22097;SDS011;11215;51.938;8.464;2023-05-27T06:45:53;9.00;;;4.07;;
22097;SDS011;11215;51.938;8.464;2023-05-27T06:48:18;10.10;;;3.93;;
22097;SDS011;11215;51.938;8.464;2023-05-27T06:50:44;10.53;;;4.20;;
22097;SDS011;11215;51.938;8.464;2023-05-27T06:53:10;7.27;;;4.00;;
22097;SDS011;11215;51.938;8.464;2023-05-27T06:55:35;10.33;;;4.23;;
22097;SDS011;11215;51.938;8.464;2023-05-27T06:58:01;7.07;;;3.67;;
22097;SDS011;11215;51.938;8.464;2023-05-27T07:00:27;9.70;;;4.17;;
22097;SDS011;11215;51.938;8.464;2023-05-27T07:02:52;12.73;;;4.30;;
22097;SDS011;11215;51.938;8.464;2023-05-27T07:05:18;8.23;;;4.03;;
22097;SDS011;11215;51.938;8.464;2023-05-27T07:07:44;10.03;;;4.47;;
22097;SDS011;11215;51.938;8.464;2023-05-27T07:10:10;10.17;;;4.07;;
22097;SDS011;11215;51.938;8.464;2023-05-27T07:12:35;8.00;;;3.80;;
22097;SDS011;11215;51.938;8.464;2023-05-27T07:15:01;8.57;;;3.87;;
22097;SDS011;11215;51.938;8.464;2023-05-27T07:17:26;10.97;;;4.53;;
22097;SDS011;11215;51.938;8.464;2023-05-27T07:19:52;10.10;;;4.47;;
22097;SDS011;11215;51.938;8.464;2023-05-27T07:22:18;10.83;;;4.30;;
22097;SDS011;11215;51.938;8.464;2023-05-27T07:24:43;12.73;;;4.50;;
22097;SDS011;11215;51.938;8.464;2023-05-27T07:27:09;10.47;;;4.63;;
22097;SDS011;11215;51.938;8.464;2023-05-27T07:29:35;8.80;;;4.20;;
22097;SDS011;11215;51.938;8.464;2023-05-27T07:32:00;12.20;;;4.40;;
22097;SDS011;11215;51.938;8.464;2023-05-27T07:34:26;11.60;;;4.97;;
22097;SDS011;11215;51.938;8.464;2023-05-27T07:36:52;11.90;;;4.57;;
22097;SDS011;11215;51.938;8.464;2023-05-27T07:39:17;8.80;;;4.37;;
22097;SDS011;11215;51.938;8.464;2023-05-27T07:41:43;9.47;;;4.10;;
22097;SDS011;11215;51.938;8.464;2023-05-27T07:44:08;10.37;;;4.30;;
22097;SDS011;11215;51.938;8.464;2023-05-27T07:46:34;8.03;;;3.80;;
22097;SDS011;11215;51.938;8.464;2023-05-27T07:49:03;10.07;;;4.27;;
22097;SDS011;11215;51.938;8.464;2023-05-27T07:51:30;9.50;;;4.07;;
22097;SDS011;11215;51.938;8.464;2023-05-27T07:53:56;10.53;;;4.77;;
22097;SDS011;11215;51.938;8.464;2023-05-27T07:56:22;12.73;;;4.50;;
22097;SDS011;11215;51.938;8.464;2023-05-27T07:58:48;10.97;;;4.97;;
22097;SDS011;11215;51.938;8.464;2023-05-27T08:01:13;9.30;;;4.30;;
22097;SDS011;11215;51.938;8.464;2023-05-27T08:03:39;8.43;;;4.03;;
22097;SDS011;11215;51.938;8.464;2023-05-27T08:06:05;8.27;;;3.60;;
22097;SDS011;11215;51.938;8.464;2023-05-27T08:08:31;10.33;;;4.53;;
22097;SDS011;11215;51.938;8.464;2023-05-27T08:10:56;8.73;;;4.20;;
22097;SDS011;11215;51.938;8.464;2023-05-27T08:13:22;11.30;;;4.40;;
22097;SDS011;11215;51.938;8.464;2023-05-27T08:15:47;10.83;;;5.13;;
22097;SDS011;11215;51.938;8.464;2023-05-27T08:18:13;14.83;;;4.37;;
22097;SDS011;11215;51.938;8.464;2023-05-27T08:20:39;11.17;;;4.50;;
22097;SDS011;11215;51.938;8.464;2023-05-27T08:23:05;15.93;;;6.40;;
22097;SDS011;11215;51.938;8.464;2023-05-27T08:25:31;7.43;;;4.03;;
22097;SDS011;11215;51.938;8.464;2023-05-27T08:27:56;7.20;;;3.67;;
22097;SDS011;11215;51.938;8.464;2023-05-27T08:30:26;13.13;;;4.63;;
22097;SDS011;11215;51.938;8.464;2023-05-27T08:32:53;9.37;;;4.80;;
22097;SDS011;11215;51.938;8.464;2023-05-27T08:35:19;12.70;;;5.00;;
22097;SDS011;11215;51.938;8.464;2023-05-27T08:37:45;10.00;;;4.23;;
22097;SDS011;11215;51.938;8.464;2023-05-27T08:40:12;10.03;;;4.37;;
22097;SDS011;11215;51.938;8.464;2023-05-27T08:42:39;8.70;;;4.13;;
22097;SDS011;11215;51.938;8.464;2023-05-27T08:45:05;10.23;;;5.23;;
22097;SDS011;11215;51.938;8.464;2023-05-27T08:47:32;8.43;;;4.27;;
22097;SDS011;11215;51.938;8.464;2023-05-27T08:49:58;10.20;;;4.67;;
22097;SDS011;11215;51.938;8.464;2023-05-27T08:52:24;10.60;;;4.63;;
22097;SDS011;11215;51.938;8.464;2023-05-27T08:54:52;10.50;;;4.87;;
22097;SDS011;11215;51.938;8.464;2023-05-27T08:57:19;10.93;;;4.27;;
22097;SDS011;11215;51.938;8.464;2023-05-27T08:59:49;8.87;;;4.20;;
22097;SDS011;11215;51.938;8.464;2023-05-27T09:02:16;9.27;;;4.00;;
22097;SDS011;11215;51.938;8.464;2023-05-27T09:04:45;9.07;;;4.27;;
22097;SDS011;11215;51.938;8.464;2023-05-27T09:07:11;11.17;;;4.60;;
22097;SDS011;11215;51.938;8.464;2023-05-27T09:09:38;7.90;;;3.70;;
22097;SDS011;11215;51.938;8.464;2023-05-27T09:12:04;11.80;;;4.83;;
22097;SDS011;11215;51.938;8.464;2023-05-27T09:14:31;9.83;;;4.43;;
22097;SDS011;11215;51.938;8.464;2023-05-27T09:17:04;8.33;;;3.87;;
22097;SDS011;11215;51.938;8.464;2023-05-27T09:19:31;11.57;;;4.40;;
22097;SDS011;11215;51.938;8.464;2023-05-27T09:21:57;8.67;;;4.10;;
22097;SDS011;11215;51.938;8.464;2023-05-27T09:24:23;10.70;;;4.67;;
22097;SDS011;11215;51.938;8.464;2023-05-27T09:26:51;9.33;;;3.93;;
22097;SDS011;11215;51.938;8.464;2023-05-27T09:29:18;8.57;;;4.17;;
22097;SDS011;11215;51.938;8.464;2023-05-27T09:31:44;7.17;;;4.00;;
22097;SDS011;11215;51.938;8.464;2023-05-27T09:34:14;8.53;;;4.50;;
22097;SDS011;11215;51.938;8.464;2023-05-27T09:36:44;8.33;;;4.20;;
22097;SDS011;11215;51.938;8.464;2023-05-27T09:39:13;10.60;;;3.90;;
22097;SDS011;11215;51.938;8.464;2023-05-27T09:41:39;9.67;;;4.40;;
22097;SDS011;11215;51.938;8.464;2023-05-27T09:44:06;9.40;;;3.97;;
22097;SDS011;11215;51.938;8.464;2023-05-27T09:46:32;8.53;;;4.23;;
22097;SDS011;11215;51.938;8.464;2023-05-27T09:48:58;9.60;;;4.30;;
22097;SDS011;11215;51.938;8.464;2023-05-27T09:51:28;8.37;;;3.93;;
22097;SDS011;11215;51.938;8.464;2023-05-27T09:53:55;8.47;;;4.33;;
22097;SDS011;11215;51.938;8.464;2023-05-27T09:56:24;7.70;;;4.53;;
22097;SDS011;11215;51.938;8.464;2023-05-27T09:58:52;10.67;;;4.47;;
22097;SDS011;11215;51.938;8.464;2023-05-27T10:01:21;10.30;;;4.20;;
22097;SDS011;11215;51.938;8.464;2023-05-27T10:03:51;7.23;;;4.30;;
22097;SDS011;11215;51.938;8.464;2023-05-27T10:06:17;8.97;;;4.43;;
22097;SDS011;11215;51.938;8.464;2023-05-27T10:08:43;8.90;;;4.40;;
22097;SDS011;11215;51.938;8.464;2023-05-27T10:11:12;9.57;;;4.30;;
22097;SDS011;11215;51.938;8.464;2023-05-27T10:13:38;8.97;;;4.07;;
22097;SDS011;11215;51.938;8.464;2023-05-27T10:16:05;9.90;;;4.20;;
22097;SDS011;11215;51.938;8.464;2023-05-27T10:18:31;6.03;;;3.83;;
22097;SDS011;11215;51.938;8.464;2023-05-27T10:20:59;9.93;;;4.30;;
22097;SDS011;11215;51.938;8.464;2023-05-27T10:23:28;9.00;;;3.90;;
22097;SDS011;11215;51.938;8.464;2023-05-27T10:25:56;10.47;;;4.07;;
22097;SDS011;11215;51.938;8.464;2023-05-27T10:28:33;5.60;;;3.80;;
22097;SDS011;11215;51.938;8.464;2023-05-27T10:33:33;7.50;;;3.70;;
22097;SDS011;11215;51.938;8.464;2023-05-27T10:36:04;7.23;;;3.13;;
22097;SDS011;11215;51.938;8.464;2023-05-27T10:38:34;5.83;;;3.73;;
22097;SDS011;11215;51.938;8.464;2023-05-27T10:41:01;6.07;;;3.20;;
22097;SDS011;11215;51.938;8.464;2023-05-27T10:43:28;9.47;;;3.87;;
22097;SDS011;11215;51.938;8.464;2023-05-27T10:46:07;8.60;;;3.30;;
22097;SDS011;11215;51.938;8.464;2023-05-27T10:48:34;12.83;;;3.90;;
22097;SDS011;11215;51.938;8.464;2023-05-27T10:51:02;8.40;;;3.83;;
22097;SDS011;11215;51.938;8.464;2023-05-27T10:53:28;6.67;;;2.93;;
22097;SDS011;11215;51.938;8.464;2023-05-27T10:55:57;6.27;;;3.43;;
22097;SDS011;11215;51.938;8.464;2023-05-27T10:58:23;8.03;;;3.20;;
22097;SDS011;11215;51.938;8.464;2023-05-27T11:00:51;11.87;;;3.70;;
22097;SDS011;11215;51.938;8.464;2023-05-27T11:03:24;6.03;;;3.83;;
22097;SDS011;11215;51.938;8.464;2023-05-27T11:06:02;9.70;;;3.40;;
22097;SDS011;11215;51.938;8.464;2023-05-27T11:08:30;6.13;;;3.37;;
22097;SDS011;11215;51.938;8.464;2023-05-27T11:13:41;8.07;;;3.17;;
22097;SDS011;11215;51.938;8.464;2023-05-27T11:16:08;6.87;;;3.20;;
22097;SDS011;11215;51.938;8.464;2023-05-27T11:18:35;7.13;;;3.50;;
22097;SDS011;11215;51.938;8.464;2023-05-27T11:21:05;5.90;;;3.30;;
22097;SDS011;11215;51.938;8.464;2023-05-27T11:23:36;8.47;;;3.37;;
22097;SDS011;11215;51.938;8.464;2023-05-27T11:28:49;6.93;;;3.10;;
22097;SDS011;11215;51.938;8.464;2023-05-27T11:31:15;7.47;;;3.10;;
22097;SDS011;11215;51.938;8.464;2023-05-27T11:33:41;8.80;;;3.93;;
22097;SDS011;11215;51.938;8.464;2023-05-27T11:36:10;6.93;;;3.40;;
22097;SDS011;11215;51.938;8.464;2023-05-27T11:41:20;6.60;;;3.27;;
22097;SDS011;11215;51.938;8.464;2023-05-27T11:44:07;5.13;;;2.70;;
22097;SDS011;11215;51.938;8.464;2023-05-27T11:46:37;4.73;;;2.93;;
22097;SDS011;11215;51.938;8.464;2023-05-27T11:49:04;5.97;;;2.63;;
22097;SDS011;11215;51.938;8.464;2023-05-27T11:51:33;8.80;;;3.30;;
22097;SDS011;11215;51.938;8.464;2023-05-27T11:54:02;5.43;;;3.10;;
22097;SDS011;11215;51.938;8.464;2023-05-27T11:56:28;4.83;;;2.97;;
22097;SDS011;11215;51.938;8.464;2023-05-27T11:58:54;7.50;;;3.23;;
22097;SDS011;11215;51.938;8.464;2023-05-27T12:01:21;6.00;;;2.90;;
22097;SDS011;11215;51.938;8.464;2023-05-27T12:03:47;4.77;;;2.53;;
22097;SDS011;11215;51.938;8.464;2023-05-27T12:06:12;6.23;;;3.07;;
22097;SDS011;11215;51.938;8.464;2023-05-27T12:08:38;6.00;;;3.27;;
22097;SDS011;11215;51.938;8.464;2023-05-27T12:11:04;5.30;;;3.50;;
22097;SDS011;11215;51.938;8.464;2023-05-27T12:13:29;4.30;;;2.90;;
22097;SDS011;11215;51.938;8.464;2023-05-27T12:15:56;3.77;;;2.87;;
22097;SDS011;11215;51.938;8.464;2023-05-27T12:18:23;4.67;;;2.73;;
22097;SDS011;11215;51.938;8.464;2023-05-27T12:20:49;7.77;;;3.43;;
22097;SDS011;11215;51.938;8.464;2023-05-27T12:23:14;5.73;;;2.70;;
22097;SDS011;11215;51.938;8.464;2023-05-27T12:25:40;6.93;;;2.80;;
22097;SDS011;11215;51.938;8.464;2023-05-27T12:28:07;8.73;;;3.13;;
22097;SDS011;11215;51.938;8.464;2023-05-27T12:30:33;4.73;;;2.77;;
22097;SDS011;11215;51.938;8.464;2023-05-27T12:32:59;5.80;;;2.77;;
22097;SDS011;11215;51.938;8.464;2023-05-27T12:35:25;7.23;;;2.70;;
22097;SDS011;11215;51.938;8.464;2023-05-27T12:37:51;5.00;;;2.83;;
22097;SDS011;11215;51.938;8.464;2023-05-27T12:40:17;5.77;;;2.63;;
22097;SDS011;11215;51.938;8.464;2023-05-27T12:42:43;6.47;;;2.80;;
22097;SDS011;11215;51.938;8.464;2023-05-27T12:45:09;4.73;;;2.70;;
22097;SDS011;11215;51.938;8.464;2023-05-27T12:47:35;5.77;;;3.00;;
22097;SDS011;11215;51.938;8.464;2023-05-27T12:50:01;6.70;;;2.90;;
22097;SDS011;11215;51.938;8.464;2023-05-27T12:52:27;5.10;;;2.90;;
22097;SDS011;11215;51.938;8.464;2023-05-27T12:54:53;5.30;;;2.60;;
22097;SDS011;11215;51.938;8.464;2023-05-27T12:57:19;4.67;;;2.83;;
22097;SDS011;11215;51.938;8.464;2023-05-27T12:59:45;5.23;;;2.87;;
22097;SDS011;11215;51.938;8.464;2023-05-27T13:02:10;7.03;;;2.90;;
22097;SDS011;11215;51.938;8.464;2023-05-27T13:04:36;7.60;;;2.77;;
22097;SDS011;11215;51.938;8.464;2023-05-27T13:07:02;6.43;;;2.73;;
22097;SDS011;11215;51.938;8.464;2023-05-27T13:09:28;7.27;;;3.23;;
22097;SDS011;11215;51.938;8.464;2023-05-27T13:11:54;4.50;;;3.07;;
22097;SDS011;11215;51.938;8.464;2023-05-27T13:14:19;4.53;;;2.87;;
22097;SDS011;11215;51.938;8.464;2023-05-27T13:19:14;4.10;;;2.70;;
22097;SDS011;11215;51.938;8.464;2023-05-27T13:21:40;6.87;;;3.00;;
22097;SDS011;11215;51.938;8.464;2023-05-27T13:24:05;6.07;;;3.17;;
22097;SDS011;11215;51.938;8.464;2023-05-27T13:26:31;5.17;;;2.87;;
22097;SDS011;11215;51.938;8.464;2023-05-27T13:28:58;5.40;;;2.77;;
22097;SDS011;11215;51.938;8.464;2023-05-27T13:31:23;5.63;;;3.40;;
22097;SDS011;11215;51.938;8.464;2023-05-27T13:33:49;5.43;;;2.90;;
22097;SDS011;11215;51.938;8.464;2023-05-27T13:36:15;5.83;;;2.77;;
22097;SDS011;11215;51.938;8.464;2023-05-27T13:38:41;6.13;;;2.90;;
22097;SDS011;11215;51.938;8.464;2023-05-27T13:41:07;4.30;;;2.70;;
22097;SDS011;11215;51.938;8.464;2023-05-27T13:43:32;4.27;;;2.67;;
22097;SDS011;11215;51.938;8.464;2023-05-27T13:45:58;5.73;;;2.97;;
22097;SDS011;11215;51.938;8.464;2023-05-27T13:48:24;5.00;;;3.40;;
22097;SDS011;11215;51.938;8.464;2023-05-27T13:50:49;5.33;;;2.67;;
22097;SDS011;11215;51.938;8.464;2023-05-27T13:53:15;5.67;;;2.63;;
22097;SDS011;11215;51.938;8.464;2023-05-27T13:55:40;5.20;;;3.17;;
22097;SDS011;11215;51.938;8.464;2023-05-27T13:58:07;4.17;;;2.43;;
22097;SDS011;11215;51.938;8.464;2023-05-27T14:00:33;5.07;;;3.07;;
22097;SDS011;11215;51.938;8.464;2023-05-27T14:02:59;3.70;;;2.70;;
22097;SDS011;11215;51.938;8.464;2023-05-27T14:05:25;3.93;;;2.50;;
22097;SDS011;11215;51.938;8.464;2023-05-27T14:07:53;5.97;;;3.13;;
22097;SDS011;11215;51.938;8.464;2023-05-27T14:10:19;5.27;;;3.17;;
22097;SDS011;11215;51.938;8.464;2023-05-27T14:12:45;4.50;;;2.83;;
22097;SDS011;11215;51.938;8.464;2023-05-27T14:15:11;5.13;;;2.80;;
22097;SDS011;11215;51.938;8.464;2023-05-27T14:17:37;6.30;;;2.83;;
22097;SDS011;11215;51.938;8.464;2023-05-27T14:20:04;6.63;;;3.10;;
22097;SDS011;11215;51.938;8.464;2023-05-27T14:22:35;3.97;;;2.47;;
22097;SDS011;11215;51.938;8.464;2023-05-27T14:25:01;5.30;;;3.30;;
22097;SDS011;11215;51.938;8.464;2023-05-27T14:27:27;3.23;;;2.63;;
22097;SDS011;11215;51.938;8.464;2023-05-27T14:29:53;5.47;;;2.80;;
22097;SDS011;11215;51.938;8.464;2023-05-27T14:32:18;4.80;;;2.70;;
22097;SDS011;11215;51.938;8.464;2023-05-27T14:34:44;6.53;;;2.80;;
22097;SDS011;11215;51.938;8.464;2023-05-27T14:37:10;5.70;;;3.37;;
22097;SDS011;11215;51.938;8.464;2023-05-27T14:39:35;4.43;;;2.80;;
22097;SDS011;11215;51.938;8.464;2023-05-27T14:42:01;4.53;;;2.83;;
22097;SDS011;11215;51.938;8.464;2023-05-27T14:44:26;5.13;;;2.97;;
22097;SDS011;11215;51.938;8.464;2023-05-27T14:46:52;4.57;;;2.73;;
22097;SDS011;11215;51.938;8.464;2023-05-27T14:49:17;8.43;;;3.73;;
22097;SDS011;11215;51.938;8.464;2023-05-27T14:51:43;7.67;;;3.10;;
22097;SDS011;11215;51.938;8.464;2023-05-27T14:54:09;7.50;;;3.30;;
22097;SDS011;11215;51.938;8.464;2023-05-27T14:56:36;5.30;;;2.83;;
22097;SDS011;11215;51.938;8.464;2023-05-27T14:59:02;5.73;;;3.20;;
22097;SDS011;11215;51.938;8.464;2023-05-27T15:01:28;4.03;;;2.53;;
22097;SDS011;11215;51.938;8.464;2023-05-27T15:03:53;4.90;;;3.10;;
22097;SDS011;11215;51.938;8.464;2023-05-27T15:06:19;5.50;;;3.10;;